This is the latest recevied weather packets stored in our database for station/object DG0PX-12. If no packets are shown the sender has not sent any weather packets the latest 10 day(s).
| Time | Temp. | Humidity | Pressure | Rain* | Wind** | Luminosity | Snow |
|---|---|---|---|---|---|---|---|
| 1787482750 | 30° C | 28% | 955.2 hPa | - | - | - | - |
| 1787481850 | 26.67° C | 34% | 955 hPa | - | - | - | - |
| 1787480950 | 27.22° C | 33% | 955 hPa | - | - | - | - |
| 1787480050 | 26.11° C | 36% | 955.1 hPa | - | - | - | - |
| 1787479150 | 26.67° C | 37% | 955.2 hPa | - | - | - | - |
| 1787478250 | 25.56° C | 37% | 955.3 hPa | - | - | - | - |
| 1787477350 | 25° C | 39% | 955.2 hPa | - | - | - | - |
| 1787476450 | 23.89° C | 41% | 955.2 hPa | - | - | - | - |
| 1787475550 | 25° C | 39% | 955.5 hPa | - | - | - | - |
| 1787474650 | 25.56° C | 38% | 955.5 hPa | - | - | - | - |
| 1787473749 | 23.89° C | 43% | 955.2 hPa | - | - | - | - |
| 1787472849 | 25.56° C | 40% | 955.3 hPa | - | - | - | - |
| 1787471949 | 24.44° C | 43% | 955 hPa | - | - | - | - |
| 1787471049 | 22.22° C | 49% | 954.9 hPa | - | - | - | - |
| 1787470149 | 23.33° C | 47% | 954.8 hPa | - | - | - | - |
| 1787469249 | 22.78° C | 48% | 954.8 hPa | - | - | - | - |
| 1787468349 | 23.33° C | 46% | 955 hPa | - | - | - | - |
| 1787467449 | 23.33° C | 45% | 955 hPa | - | - | - | - |
| 1787466549 | 22.78° C | 46% | 955.1 hPa | - | - | - | - |
| 1787465649 | 22.78° C | 47% | 954.9 hPa | - | - | - | - |
| 1787464749 | 21.11° C | 53% | 954.7 hPa | - | - | - | - |
| 1787463849 | 19.44° C | 56% | 954.5 hPa | - | - | - | - |
| 1787462949 | 20° C | 53% | 954.7 hPa | - | - | - | - |
| 1787462049 | 18.89° C | 57% | 954.5 hPa | - | - | - | - |
| 1787461149 | 19.44° C | 56% | 954.6 hPa | - | - | - | - |
* Rain since midnight (hover to see other rain measurements)
** Current wind speed in m/s (hover to see current wind gust speed)